Time;durP1;ratioP1;P1;durP2;ratioP2;P2;SDS_P1;SDS_P2;PMS_P1;PMS_P2;Temp;Humidity;BMP_temperature;BMP_pressure;BME280_temperature;BME280_humidity;BME280_pressure;Samples;Min_cycle;Max_cycle;Signal;HPM_P1;HPM_P2
2021/07/02 00:01:05;;;;;;;1.23;0.63;;;;;;;;;;4856019;28;20660;-74
2021/07/02 00:03:29;;;;;;;1.07;0.57;;;17.50;1.00;;;;;;4870526;28;20221;-76
2021/07/02 00:05:52;;;;;;;1.50;0.77;;;17.20;1.00;;;;;;4860207;28;20190;-74
2021/07/02 00:08:15;;;;;;;1.40;0.70;;;16.90;1.00;;;;;;4876260;28;20212;-75
2021/07/02 00:10:37;;;;;;;1.20;0.60;;;17.10;1.00;;;;;;4877060;28;20761;-76
2021/07/02 00:13:00;;;;;;;1.07;0.60;;;17.20;1.00;;;;;;4868059;28;20236;-77
2021/07/02 00:15:22;;;;;;;5.20;2.00;;;16.60;99.90;;;;;;4856555;28;20704;-77
2021/07/02 00:17:45;;;;;;;1.40;0.60;;;17.40;99.90;;;;;;4858196;28;20740;-77
2021/07/02 00:20:10;;;;;;;1.13;0.57;;;17.10;1.00;;;;;;4857207;28;20223;-76
2021/07/02 00:22:34;;;;;;;0.60;0.47;;;;;;;;;;4862549;28;20587;-74
2021/07/02 00:24:56;;;;;;;0.67;0.40;;;17.40;1.00;;;;;;4876559;28;20582;-75
2021/07/02 00:27:19;;;;;;;2.10;1.03;;;16.00;1.00;;;;;;4860198;28;20302;-76
2021/07/02 00:29:42;;;;;;;0.60;0.30;;;;;;;;;;4860273;28;20754;-74
2021/07/02 00:32:05;;;;;;;1.37;0.67;;;16.70;1.00;;;;;;4874280;28;20206;-75
2021/07/02 00:34:28;;;;;;;1.77;0.93;;;;;;;;;;4867319;28;20252;-76
2021/07/02 00:36:52;;;;;;;0.80;0.50;;;16.70;1.00;;;;;;4859254;28;20635;-73
2021/07/02 00:39:14;;;;;;;0.43;0.23;;;17.10;99.90;;;;;;4859497;28;20213;-75
2021/07/02 00:41:38;;;;;;;1.30;0.60;;;16.90;99.90;;;;;;4868499;28;20199;-75
2021/07/02 00:44:01;;;;;;;1.70;0.90;;;17.00;99.90;;;;;;4855553;28;20255;-75
2021/07/02 00:46:24;;;;;;;2.07;1.03;;;17.00;99.90;;;;;;4856350;28;20283;-75
2021/07/02 00:48:47;;;;;;;2.07;1.00;;;16.80;99.90;;;;;;4862337;28;20259;-75
2021/07/02 00:51:10;;;;;;;1.40;0.80;;;16.70;1.00;;;;;;4876998;28;20238;-76
2021/07/02 00:53:34;;;;;;;0.50;0.30;;;16.90;99.90;;;;;;4877230;28;20192;-76
2021/07/02 00:55:57;;;;;;;1.47;0.87;;;;;;;;;;4857694;28;20679;-74
2021/07/02 00:58:21;;;;;;;2.30;1.03;;;16.50;1.00;;;;;;4857500;28;20272;-75
2021/07/02 01:00:44;;;;;;;5.27;2.47;;;17.10;1.00;;;;;;4855994;28;20740;-75
2021/07/02 01:03:08;;;;;;;0.97;0.50;;;;;;;;;;4857920;28;20236;-75
2021/07/02 01:05:30;;;;;;;1.57;0.93;;;17.00;1.00;;;;;;4857422;28;20186;-75
2021/07/02 01:07:54;;;;;;;0.80;0.43;;;;;;;;;;4872879;28;20205;-74
2021/07/02 01:10:18;;;;;;;1.47;0.67;;;16.40;1.00;;;;;;4875260;28;20208;-75
2021/07/02 01:12:42;;;;;;;1.17;0.67;;;16.80;1.00;;;;;;4874932;28;20319;-75
2021/07/02 01:15:18;;;;;;;0.60;0.47;;;16.90;1.00;;;;;;4868675;28;20739;-75
2021/07/02 01:17:41;;;;;;;2.47;1.23;;;16.90;1.00;;;;;;4856457;28;20711;-76
2021/07/02 01:20:05;;;;;;;2.07;0.93;;;16.50;99.90;;;;;;4857144;28;20178;-75
2021/07/02 01:22:31;;;;;;;1.47;0.80;;;16.50;1.00;;;;;;4852357;28;20236;-75
2021/07/02 01:24:57;;;;;;;1.13;0.67;;;16.10;1.00;;;;;;4863621;28;20333;-75
2021/07/02 01:27:22;;;;;;;2.60;1.17;;;16.60;1.00;;;;;;4856328;28;20248;-74
2021/07/02 01:29:45;;;;;;;1.10;0.70;;;;;;;;;;4857368;28;20565;-75
2021/07/02 01:32:10;;;;;;;0.93;0.57;;;15.70;1.00;;;;;;4838769;28;20292;-74
2021/07/02 01:34:34;;;;;;;0.83;0.50;;;;;;;;;;4857834;28;20210;-74
2021/07/02 01:36:57;;;;;;;0.70;0.40;;;;;;;;;;4875012;28;20564;-76
2021/07/02 01:39:22;;;;;;;3.37;1.33;;;16.20;1.00;;;;;;4876395;28;20588;-75
2021/07/02 01:41:45;;;;;;;1.27;0.57;;;;;;;;;;4875708;28;20197;-74
2021/07/02 01:44:07;;;;;;;1.40;0.73;;;;;;;;;;4874913;28;20193;-75
2021/07/02 01:46:31;;;;;;;3.13;1.33;;;15.90;99.90;;;;;;4874229;28;20224;-75
2021/07/02 01:48:53;;;;;;;0.50;0.30;;;;;;;;;;4875171;28;20205;-75
2021/07/02 01:51:19;;;;;;;3.40;1.27;;;16.40;99.90;;;;;;4869218;28;20190;-75
2021/07/02 01:53:43;;;;;;;1.30;0.57;;;15.80;99.90;;;;;;4856515;28;20206;-76
2021/07/02 01:56:09;;;;;;;1.13;0.60;;;16.10;1.00;;;;;;4856096;28;20248;-75
2021/07/02 01:58:35;;;;;;;0.73;0.40;;;;;;;;;;4865238;28;20256;-76
2021/07/02 02:01:10;;;;;;;1.13;0.63;;;15.40;1.00;;;;;;4857239;28;20593;-77
2021/07/02 02:03:33;;;;;;;0.70;0.40;;;;;;;;;;4868899;28;20233;-75
2021/07/02 02:05:57;;;;;;;1.50;0.83;;;;;;;;;;4876019;28;20659;-75
2021/07/02 02:08:21;;;;;;;2.20;1.07;;;15.90;1.00;;;;;;4874452;28;20205;-76
2021/07/02 02:10:46;;;;;;;0.83;0.43;;;15.90;1.00;;;;;;4871775;28;20252;-75
2021/07/02 02:13:10;;;;;;;1.97;0.90;;;16.10;1.00;;;;;;4839170;28;20739;-75
2021/07/02 02:15:33;;;;;;;0.47;0.20;;;;;;;;;;4855608;28;20190;-75
2021/07/02 02:17:58;;;;;;;1.47;0.73;;;15.90;1.00;;;;;;4855352;28;20222;-75
2021/07/02 02:20:23;;;;;;;2.53;1.10;;;;;;;;;;4855529;28;20248;-75
2021/07/02 02:22:47;;;;;;;1.10;0.53;;;16.10;1.00;;;;;;4836890;28;20237;-75
2021/07/02 02:25:10;;;;;;;1.03;0.63;;;16.10;1.00;;;;;;4832074;28;20187;-77
2021/07/02 02:27:34;;;;;;;0.73;0.40;;;15.80;1.00;;;;;;4858446;28;20280;-75
2021/07/02 02:29:58;;;;;;;2.27;1.07;;;15.50;1.00;;;;;;4842367;28;20186;-75
2021/07/02 02:32:21;;;;;;;1.67;0.87;;;15.80;1.00;;;;;;4874078;28;20229;-75
2021/07/02 02:34:44;;;;;;;1.00;0.50;;;15.60;31.30;;;;;;4879546;28;20758;-77
2021/07/02 02:37:07;;;;;;;0.60;0.33;;;16.00;11.70;;;;;;4878781;28;20193;-76
2021/07/02 02:39:31;;;;;;;5.07;2.20;;;16.10;12.80;;;;;;4857755;28;20247;-76
2021/07/02 02:41:55;;;;;;;1.00;0.50;;;;;;;;;;4859342;28;20264;-75
2021/07/02 02:44:17;;;;;;;1.90;0.87;;;16.00;99.90;;;;;;4864429;28;20698;-76
2021/07/02 02:46:42;;;;;;;1.07;0.53;;;15.60;22.10;;;;;;4876651;28;20702;-77
2021/07/02 02:49:05;;;;;;;1.53;0.83;;;16.00;81.00;;;;;;4859343;28;20197;-76
2021/07/02 02:51:28;;;;;;;1.50;0.80;;;15.90;49.70;;;;;;4859163;28;20202;-76
2021/07/02 02:53:51;;;;;;;1.43;0.70;;;15.90;1.00;;;;;;4860225;28;20186;-76
2021/07/02 02:56:14;;;;;;;0.57;0.40;;;;;;;;;;4858453;28;20271;-74
2021/07/02 02:58:36;;;;;;;1.13;0.57;;;15.90;1.00;;;;;;4858556;28;20566;-77
2021/07/02 03:00:59;;;;;;;3.77;1.70;;;16.40;1.00;;;;;;4866277;28;20206;-76
2021/07/02 03:03:25;;;;;;;1.90;0.93;;;16.10;1.00;;;;;;4858548;28;20280;-76
2021/07/02 03:05:48;;;;;;;1.00;0.60;;;;;;;;;;4860045;28;20186;-77
2021/07/02 03:08:10;;;;;;;0.90;0.60;;;15.60;1.00;;;;;;4858717;28;20202;-76
2021/07/02 03:10:44;;;;;;;1.00;0.60;;;15.80;1.00;;;;;;4859216;28;20698;-76
2021/07/02 03:13:08;;;;;;;1.03;0.60;;;;;;;;;;4859035;28;20329;-75
2021/07/02 03:15:31;;;;;;;2.13;1.03;;;16.70;1.00;;;;;;4859746;28;20647;-75
2021/07/02 03:17:55;;;;;;;0.77;0.40;;;15.90;1.00;;;;;;4858938;28;20276;-74
2021/07/02 03:20:19;;;;;;;2.00;1.00;;;16.50;1.00;;;;;;4873885;28;20217;-75
2021/07/02 03:22:42;;;;;;;1.07;0.60;;;16.30;1.00;;;;;;4877939;28;20251;-75
2021/07/02 03:25:06;;;;;;;0.70;0.40;;;16.20;99.90;;;;;;4862072;28;20190;-76
2021/07/02 03:27:29;;;;;;;1.60;0.93;;;;;;;;;;4863031;28;20209;-76
2021/07/02 03:29:53;;;;;;;1.40;0.77;;;16.10;1.00;;;;;;4860708;28;20229;-74
2021/07/02 03:32:15;;;;;;;0.83;0.40;;;;;;;;;;4877154;28;20206;-74
2021/07/02 03:34:44;;;;;;;0.97;0.50;;;16.40;1.00;;;;;;4876594;28;20302;-74
2021/07/02 03:37:09;;;;;;;1.93;0.93;;;16.20;99.90;;;;;;4891905;28;20258;-75
2021/07/02 03:39:34;;;;;;;0.37;0.30;;;;;;;;;;4858069;28;20238;-75
2021/07/02 03:41:57;;;;;;;0.87;0.57;;;;;;;;;;4857730;28;20268;-74
2021/07/02 03:44:19;;;;;;;2.10;1.03;;;16.50;1.00;;;;;;4858698;28;20194;-75
2021/07/02 03:46:44;;;;;;;1.27;0.63;;;16.30;1.00;;;;;;4853650;28;20222;-75
2021/07/02 03:49:07;;;;;;;0.87;0.50;;;16.20;1.00;;;;;;4860796;28;20535;-74
2021/07/02 03:51:31;;;;;;;1.50;0.87;;;;;;;;;;4891954;28;20207;-74
2021/07/02 03:53:54;;;;;;;2.40;1.20;;;16.40;99.90;;;;;;4878000;28;20185;-74
2021/07/02 03:56:17;;;;;;;1.90;1.03;;;;;;;;;;4868848;28;20598;-74
2021/07/02 03:58:40;;;;;;;2.13;1.07;;;16.80;1.00;;;;;;4857881;28;20680;-74
2021/07/02 04:01:03;;;;;;;5.97;2.73;;;;;;;;;;4860762;28;20595;-74
2021/07/02 04:03:25;;;;;;;3.37;1.63;;;16.30;1.00;;;;;;4876147;28;20233;-74
2021/07/02 04:05:48;;;;;;;1.07;0.53;;;;;;;;;;4877496;28;20182;-74
2021/07/02 04:08:10;;;;;;;0.77;0.50;;;16.70;99.90;;;;;;4859951;28;20249;-75
2021/07/02 04:10:34;;;;;;;2.20;1.17;;;17.20;99.90;;;;;;4874425;28;20181;-75
2021/07/02 04:13:17;;;;;;;1.60;0.83;;;17.40;99.90;;;;;;4856735;28;20178;-74
2021/07/02 04:15:59;;;;;;;1.17;0.57;;;17.20;1.00;;;;;;4858601;28;20189;-74
2021/07/02 04:18:42;;;;;;;1.03;0.60;;;16.90;99.90;;;;;;4858345;28;20175;-74
2021/07/02 04:21:25;;;;;;;2.03;1.00;;;17.40;19.00;;;;;;4865092;28;20182;-73
2021/07/02 04:24:07;;;;;;;1.30;0.80;;;17.50;1.00;;;;;;4877205;28;20624;-78
2021/07/02 04:26:49;;;;;;;1.23;0.73;;;17.10;1.00;;;;;;4876175;28;20172;-76
2021/07/02 04:29:31;;;;;;;1.73;1.00;;;17.40;1.00;;;;;;4876431;28;20184;-75
2021/07/02 04:32:14;;;;;;;0.93;0.60;;;;;;;;;;4875265;28;20662;-74
2021/07/02 04:34:46;;;;;;;1.33;0.73;;;;;;;;;;4856620;28;20272;-73
2021/07/02 04:37:09;;;;;;;1.47;0.60;;;17.40;1.00;;;;;;4855960;28;20674;-74
2021/07/02 04:39:33;;;;;;;1.60;0.80;;;17.70;1.00;;;;;;4840788;28;20217;-75
2021/07/02 04:41:57;;;;;;;2.03;0.97;;;18.00;1.00;;;;;;4869094;28;20247;-74
2021/07/02 04:44:19;;;;;;;2.13;0.97;;;17.40;1.00;;;;;;4875528;28;20291;-74
2021/07/02 04:46:42;;;;;;;1.90;1.00;;;;;;;;;;4873943;28;20274;-74
2021/07/02 04:49:05;;;;;;;1.10;0.50;;;;;;;;;;4875293;28;20190;-75
2021/07/02 04:51:27;;;;;;;2.73;1.23;;;17.90;99.90;;;;;;4859140;28;20259;-75
2021/07/02 04:53:50;;;;;;;3.67;1.60;;;;;;;;;;4857072;28;20205;-75
2021/07/02 04:56:13;;;;;;;1.30;0.80;;;17.90;99.90;;;;;;4857585;28;20204;-75
2021/07/02 04:58:37;;;;;;;0.90;0.50;;;18.10;18.30;;;;;;4857706;28;20194;-75
2021/07/02 05:01:00;;;;;;;0.83;0.53;;;18.20;99.90;;;;;;4873713;28;20239;-75
2021/07/02 05:03:22;;;;;;;3.13;1.40;;;17.80;99.90;;;;;;4864046;28;20571;-75
2021/07/02 05:05:45;;;;;;;1.07;0.50;;;19.10;1.00;;;;;;4874469;28;20193;-74
2021/07/02 05:08:07;;;;;;;1.40;0.67;;;18.50;99.90;;;;;;4858563;28;20216;-76
2021/07/02 05:10:30;;;;;;;2.40;1.20;;;;;;;;;;4856869;28;20207;-76
2021/07/02 05:12:53;;;;;;;0.83;0.43;;;18.50;99.90;;;;;;4856441;28;20206;-74
2021/07/02 05:15:17;;;;;;;2.00;0.87;;;18.40;1.00;;;;;;4863306;28;20198;-75
2021/07/02 05:17:40;;;;;;;1.13;0.60;;;;;;;;;;4857738;28;20243;-75
2021/07/02 05:20:02;;;;;;;2.00;0.87;;;;;;;;;;4857065;28;20249;-75
2021/07/02 05:22:25;;;;;;;3.47;1.53;;;18.40;1.00;;;;;;4865409;28;20255;-75
2021/07/02 05:24:48;;;;;;;2.07;1.00;;;18.20;99.90;;;;;;4875190;28;20203;-75
2021/07/02 05:27:11;;;;;;;1.27;0.60;;;;;;;;;;4866436;28;20212;-75
2021/07/02 05:29:34;;;;;;;1.27;0.60;;;19.30;99.90;;;;;;4856424;28;20219;-75
2021/07/02 05:31:58;;;;;;;2.30;1.03;;;19.30;1.00;;;;;;4839447;28;20187;-77
2021/07/02 05:34:20;;;;;;;2.67;1.17;;;19.20;97.60;;;;;;4855234;28;20256;-76
2021/07/02 05:36:43;;;;;;;1.30;0.67;;;;;;;;;;4867364;28;20225;-76
2021/07/02 05:39:06;;;;;;;0.87;0.40;;;;;;;;;;4858486;28;20341;-76
2021/07/02 05:41:28;;;;;;;1.80;0.87;;;20.00;7.10;;;;;;4855725;28;20194;-76
2021/07/02 05:43:51;;;;;;;1.80;0.87;;;;;;;;;;4859238;28;20246;-77
2021/07/02 05:46:14;;;;;;;1.13;0.63;;;;;;;;;;4874435;28;20733;-74
2021/07/02 05:48:38;;;;;;;1.40;0.60;;;19.70;1.00;;;;;;4876357;28;20183;-76
2021/07/02 05:51:00;;;;;;;0.97;0.50;;;19.40;1.00;;;;;;4875447;28;20207;-76
2021/07/02 05:53:23;;;;;;;2.97;1.23;;;20.70;1.00;;;;;;4858527;28;20258;-78
2021/07/02 05:55:45;;;;;;;3.87;1.57;;;;;;;;;;4871949;28;20210;-76
2021/07/02 05:58:08;;;;;;;1.80;0.90;;;20.80;1.00;;;;;;4874948;28;20187;-76
2021/07/02 06:00:31;;;;;;;16.60;6.47;;;20.30;1.00;;;;;;4864944;28;20294;-74
2021/07/02 06:02:54;;;;;;;0.93;0.50;;;;;;;;;;4868697;28;20243;-76
2021/07/02 06:05:18;;;;;;;1.47;0.67;;;20.40;1.00;;;;;;4876043;28;20233;-76
2021/07/02 06:07:45;;;;;;;1.07;0.57;;;21.00;1.00;;;;;;4876256;28;20212;-77
2021/07/02 06:10:09;;;;;;;1.43;0.70;;;20.80;1.00;;;;;;4857936;28;20247;-76
2021/07/02 06:12:31;;;;;;;2.97;1.30;;;20.20;1.00;;;;;;4853776;28;20257;-77
2021/07/02 06:14:54;;;;;;;1.50;0.80;;;20.60;1.00;;;;;;4856797;28;20188;-76
2021/07/02 06:17:17;;;;;;;1.50;0.70;;;21.10;1.00;;;;;;4863415;28;20238;-76
2021/07/02 06:19:39;;;;;;;2.17;0.97;;;21.20;1.00;;;;;;4856845;28;20188;-76
2021/07/02 06:22:04;;;;;;;1.77;0.80;;;20.60;1.00;;;;;;4856726;28;20191;-75
2021/07/02 06:24:27;;;;;;;2.53;1.03;;;;;;;;;;4861617;28;20204;-76
2021/07/02 06:26:49;;;;;;;0.90;0.50;;;20.80;1.00;;;;;;4863452;28;20225;-78
2021/07/02 06:29:12;;;;;;;2.17;0.93;;;20.60;1.00;;;;;;4866724;28;20212;-75
2021/07/02 06:31:35;;;;;;;0.50;0.30;;;;;;;;;;4858425;28;20291;-77
2021/07/02 06:33:57;;;;;;;1.30;0.57;;;;;;;;;;4855202;28;20274;-76
2021/07/02 06:36:20;;;;;;;2.83;1.17;;;;;;;;;;4855783;28;20230;-75
2021/07/02 06:38:44;;;;;;;1.53;0.60;;;20.90;1.00;;;;;;4838989;28;20620;-75
2021/07/02 06:41:06;;;;;;;0.80;0.40;;;21.50;1.00;;;;;;4864105;28;20743;-75
2021/07/02 06:43:31;;;;;;;2.60;1.27;;;21.40;1.00;;;;;;4863914;28;20193;-76
2021/07/02 06:45:53;;;;;;;1.63;0.70;;;21.40;1.00;;;;;;4854933;28;20229;-76
2021/07/02 06:48:16;;;;;;;0.87;0.47;;;;;;;;;;4855157;28;20221;-76
2021/07/02 06:50:43;;;;;;;1.50;0.70;;;21.80;1.00;;;;;;4868525;28;20180;-78
2021/07/02 06:53:06;;;;;;;1.10;0.50;;;;;;;;;;4867160;28;20231;-76
2021/07/02 06:55:31;;;;;;;2.87;1.13;;;22.30;99.90;;;;;;4854534;28;20248;-76
2021/07/02 06:57:53;;;;;;;1.23;0.60;;;22.60;1.00;;;;;;4858915;28;20231;-74
2021/07/02 07:00:18;;;;;;;1.27;0.60;;;23.20;1.00;;;;;;4854064;28;20273;-75
2021/07/02 07:02:40;;;;;;;1.57;0.77;;;23.70;1.00;;;;;;4852178;28;20236;-75
2021/07/02 07:05:04;;;;;;;2.87;1.23;;;23.00;1.00;;;;;;4838046;28;20215;-78
2021/07/02 07:07:27;;;;;;;3.00;1.13;;;23.50;1.00;;;;;;4837372;28;20218;-76
2021/07/02 07:09:50;;;;;;;7.90;3.03;;;;;;;;;;4848998;28;20435;-79
2021/07/02 07:12:14;;;;;;;1.57;0.70;;;23.90;99.90;;;;;;4858738;28;20694;-77
2021/07/02 07:14:36;;;;;;;2.30;1.00;;;23.80;1.00;;;;;;4855220;28;20230;-78
2021/07/02 07:16:59;;;;;;;1.33;0.50;;;24.20;1.00;;;;;;4859729;28;20205;-76
2021/07/02 07:19:25;;;;;;;3.77;1.40;;;;;;;;;;4872439;28;20203;-77
2021/07/02 07:21:47;;;;;;;1.67;0.70;;;;;;;;;;4861728;28;20303;-74
2021/07/02 07:24:10;;;;;;;2.20;0.87;;;24.40;1.00;;;;;;4858512;28;20207;-74
2021/07/02 07:26:33;;;;;;;2.93;1.17;;;;;;;;;;4858101;28;20202;-74
2021/07/02 07:28:56;;;;;;;1.73;0.73;;;25.00;99.90;;;;;;4859079;28;20206;-73
2021/07/02 07:31:19;;;;;;;3.53;1.27;;;25.30;1.00;;;;;;4861794;28;20282;-76
2021/07/02 07:33:45;;;;;;;1.23;0.53;;;25.10;99.90;;;;;;4861505;28;20357;-76
2021/07/02 07:36:14;;;;;;;2.30;0.90;;;25.30;1.00;;;;;;4858993;28;20242;-77
2021/07/02 07:38:37;;;;;;;1.83;0.83;;;25.00;1.00;;;;;;4865573;28;20182;-76
2021/07/02 07:40:59;;;;;;;4.23;1.60;;;24.90;99.90;;;;;;4862955;28;20299;-78
2021/07/02 07:43:24;;;;;;;3.77;1.33;;;24.70;99.90;;;;;;4857844;28;20237;-75
2021/07/02 07:45:48;;;;;;;1.43;0.53;;;24.30;99.90;;;;;;4859070;28;20215;-75
2021/07/02 07:48:10;;;;;;;2.40;1.00;;;24.00;1.00;;;;;;4866801;28;20207;-76
2021/07/02 07:50:42;;;;;;;4.13;1.57;;;23.60;1.00;;;;;;4859075;28;20245;-77
2021/07/02 07:53:05;;;;;;;1.37;0.63;;;;;;;;;;4857898;28;20200;-75
2021/07/02 07:55:29;;;;;;;6.77;2.20;;;23.60;99.90;;;;;;4858506;28;20206;-75
2021/07/02 07:57:52;;;;;;;2.97;0.97;;;23.70;1.00;;;;;;4859967;28;20191;-75
2021/07/02 08:00:16;;;;;;;1.00;0.43;;;23.70;99.90;;;;;;4857365;28;20719;-74
2021/07/02 08:02:40;;;;;;;1.40;0.57;;;23.80;99.90;;;;;;4857446;28;20225;-75
2021/07/02 08:05:03;;;;;;;2.40;0.83;;;;;;;;;;4840450;28;20188;-76
2021/07/02 08:07:25;;;;;;;5.30;2.00;;;;;;;;;;4857695;28;20200;-76
2021/07/02 08:09:48;;;;;;;4.33;1.67;;;23.90;1.00;;;;;;4857696;28;20201;-74
2021/07/02 08:12:11;;;;;;;2.20;0.80;;;23.90;1.00;;;;;;4860939;28;20195;-77
2021/07/02 08:14:34;;;;;;;3.93;1.43;;;25.30;99.90;;;;;;4868911;28;20686;-77
2021/07/02 08:16:58;;;;;;;1.47;0.57;;;23.90;99.90;;;;;;4865171;28;20221;-76
2021/07/02 08:19:22;;;;;;;3.80;1.37;;;24.60;1.00;;;;;;4868515;28;20205;-77
2021/07/02 08:21:45;;;;;;;1.40;0.60;;;;;;;;;;4858336;28;20221;-75
2021/07/02 08:24:07;;;;;;;2.23;0.90;;;24.80;99.90;;;;;;4859690;28;20186;-74
2021/07/02 08:26:30;;;;;;;1.53;0.70;;;24.60;1.00;;;;;;4860645;28;20251;-77
2021/07/02 08:31:34;;;;;;;3.53;1.20;;;24.80;99.90;;;;;;4860918;28;20202;-78
2021/07/02 08:33:57;;;;;;;0.93;0.40;;;;;;;;;;4871369;28;20191;-74
2021/07/02 08:36:21;;;;;;;4.43;1.57;;;24.90;1.00;;;;;;4871857;28;20190;-75
2021/07/02 08:38:45;;;;;;;1.97;0.80;;;;;;;;;;4860733;28;20211;-76
2021/07/02 08:41:11;;;;;;;1.80;0.70;;;25.90;1.00;;;;;;4868325;28;20267;-76
2021/07/02 08:43:34;;;;;;;2.10;0.83;;;;;;;;;;4855049;28;20200;-73
2021/07/02 08:45:58;;;;;;;1.57;0.70;;;26.40;1.00;;;;;;4851099;28;20587;-76
2021/07/02 08:48:23;;;;;;;3.70;1.13;;;27.30;1.00;;;;;;4848323;28;20201;-75
2021/07/02 08:50:46;;;;;;;1.60;0.60;;;26.50;1.00;;;;;;4866768;28;20263;-75
2021/07/02 08:53:10;;;;;;;1.60;0.63;;;26.40;1.00;;;;;;4861497;28;20200;-76
2021/07/02 08:55:33;;;;;;;4.27;1.43;;;;;;;;;;4865177;28;20204;-75
2021/07/02 08:57:55;;;;;;;1.83;0.77;;;;;;;;;;4867173;28;21022;-73
2021/07/02 09:00:20;;;;;;;2.60;1.00;;;25.60;99.90;;;;;;4856755;28;20195;-75
2021/07/02 09:02:42;;;;;;;2.50;0.90;;;;;;;;;;4859113;28;20216;-76
2021/07/02 09:05:29;;;;;;;2.57;1.00;;;26.60;1.00;;;;;;4855633;28;20190;-79
2021/07/02 09:07:52;;;;;;;3.07;0.90;;;;;;;;;;4861259;28;20638;-75
2021/07/02 09:10:16;;;;;;;2.00;0.40;;;27.00;99.90;;;;;;4857046;28;20192;-74
2021/07/02 09:12:39;;;;;;;7.10;1.37;;;;;;;;;;4855371;28;20210;-75
2021/07/02 09:15:06;;;;;;;4.03;0.70;;;27.50;99.90;;;;;;4857431;28;20205;-75
2021/07/02 09:17:29;;;;;;;9.63;1.67;;;;;;;;;;4858672;28;20232;-78
2021/07/02 09:20:04;;;;;;;6.80;1.27;;;27.20;1.00;;;;;;4862419;28;20553;-80
2021/07/02 09:22:27;;;;;;;7.90;1.47;;;;;;;;;;4859660;28;20677;-78
2021/07/02 09:24:51;;;;;;;5.20;0.97;;;;;;;;;;4864801;28;20188;-79
2021/07/02 09:27:26;;;;;;;5.37;1.10;;;26.00;99.90;;;;;;4860693;28;20196;-76
2021/07/02 09:30:02;;;;;;;8.67;1.53;;;25.50;1.00;;;;;;4843116;28;20192;-80
2021/07/02 09:32:25;;;;;;;9.03;1.60;;;25.60;1.00;;;;;;4855930;28;20210;-79
2021/07/02 09:34:50;;;;;;;3.50;0.73;;;25.20;99.90;;;;;;4838706;28;20260;-77
2021/07/02 09:37:21;;;;;;;3.67;0.70;;;25.10;1.00;;;;;;4837409;28;20221;-76
2021/07/02 09:39:44;;;;;;;3.10;0.60;;;;;;;;;;4853711;28;20262;-76
2021/07/02 09:42:26;;;;;;;5.53;1.00;;;25.60;1.00;;;;;;4873392;28;20265;-77
2021/07/02 09:45:10;;;;;;;5.53;1.07;;;25.90;1.00;;;;;;4853635;28;20184;-75
2021/07/02 09:47:56;;;;;;;5.07;0.97;;;25.80;1.00;;;;;;4854435;28;20268;-75
2021/07/02 09:50:22;;;;;;;10.93;1.93;;;25.90;1.00;;;;;;4854446;28;20308;-76
2021/07/02 09:52:47;;;;;;;8.13;1.50;;;26.00;99.90;;;;;;4867275;28;20258;-77
2021/07/02 09:55:10;;;;;;;5.13;0.97;;;27.50;99.90;;;;;;4855556;28;20661;-76
2021/07/02 09:57:35;;;;;;;7.57;1.37;;;27.10;99.90;;;;;;4839573;28;20576;-76
2021/07/02 10:00:06;;;;;;;4.50;0.83;;;27.70;99.90;;;;;;4856658;28;20195;-78
2021/07/02 10:02:38;;;;;;;3.70;0.67;;;;;;;;;;4855140;28;20217;-78
2021/07/02 10:05:01;;;;;;;3.63;0.73;;;28.20;99.90;;;;;;4860771;28;20600;-76
2021/07/02 10:07:25;;;;;;;7.93;1.50;;;;;;;;;;4869136;28;20622;-77
2021/07/02 10:09:48;;;;;;;5.83;1.03;;;;;;;;;;4839693;28;20221;-78
2021/07/02 10:12:11;;;;;;;15.00;2.70;;;;;;;;;;4875781;28;20184;-78
2021/07/02 10:14:35;;;;;;;7.67;1.43;;;28.30;1.00;;;;;;4871462;28;20253;-76
2021/07/02 10:16:58;;;;;;;2.23;0.50;;;27.20;1.00;;;;;;4867840;28;20200;-76
2021/07/02 10:19:21;;;;;;;4.87;0.90;;;;;;;;;;4872637;28;20196;-81
2021/07/02 10:21:48;;;;;;;6.93;1.23;;;27.20;99.90;;;;;;4864006;28;20202;-77
2021/07/02 10:24:11;;;;;;;5.23;1.00;;;27.50;1.00;;;;;;4847217;28;20204;-77
2021/07/02 10:26:38;;;;;;;10.77;1.90;;;27.40;99.90;;;;;;4874379;28;20192;-74
2021/07/02 10:29:01;;;;;;;5.30;1.00;;;27.50;99.90;;;;;;4875036;28;20208;-79
2021/07/02 10:31:26;;;;;;;8.00;1.43;;;27.50;99.90;;;;;;4856266;28;20303;-76
2021/07/02 10:33:52;;;;;;;5.30;0.97;;;27.30;99.90;;;;;;4861388;28;20625;-73
2021/07/02 10:36:19;;;;;;;5.87;1.17;;;27.20;99.90;;;;;;4870241;28;20202;-75
2021/07/02 10:38:43;;;;;;;10.73;1.83;;;27.50;99.90;;;;;;4857893;28;20205;-76
2021/07/02 10:41:10;;;;;;;3.83;0.70;;;28.00;99.90;;;;;;4868337;28;20226;-76
2021/07/02 10:43:33;;;;;;;9.13;1.57;;;;;;;;;;4870152;28;20265;-76
2021/07/02 10:46:14;;;;;;;4.87;0.90;;;30.40;99.90;;;;;;4857790;28;20234;-76
2021/07/02 10:49:06;;;;;;;5.63;0.97;;;32.80;99.90;;;;;;4862879;28;20197;-76
2021/07/02 10:51:50;;;;;;;10.18;1.55;;;35.50;1.00;;;;;;4863529;28;20634;-78
2021/07/02 10:54:32;;;;;;;12.82;1.80;;;37.30;99.90;;;;;;4859080;28;20209;-75
2021/07/02 10:57:06;;;;;;;7.00;1.08;;;38.60;99.90;;;;;;4862118;28;20210;-75
2021/07/02 11:00:02;;;;;;;18.27;2.45;;;39.40;99.90;;;;;;4861406;28;20255;-75
2021/07/02 11:02:25;;;;;;;29.10;8.48;;;40.80;99.90;;;;;;4858654;28;20637;-75
2021/07/02 11:04:50;;;;;;;39.63;25.73;;;41.30;99.90;;;;;;4861795;28;20186;-75
2021/07/02 11:07:45;;;;;;;16.77;5.57;;;40.90;99.90;;;;;;4856797;28;20194;-76
2021/07/02 11:10:09;;;;;;;10.45;1.70;;;39.90;99.90;;;;;;4831301;28;20186;-76
2021/07/02 11:12:33;;;;;;;22.25;3.05;;;38.50;1.00;;;;;;4855813;28;20217;-76
2021/07/02 11:15:16;;;;;;;23.13;21.10;;;37.80;1.00;;;;;;4857415;28;20201;-76
2021/07/02 11:17:40;;;;;;;9.07;2.15;;;38.00;99.90;;;;;;4857358;28;20574;-79
2021/07/02 11:20:29;;;;;;;12.80;2.05;;;39.20;19.20;;;;;;4861543;28;20634;-76
2021/07/02 11:22:57;;;;;;;9.15;6.18;;;41.10;1.00;;;;;;4858317;28;20206;-76
2021/07/02 11:25:23;;;;;;;29.77;13.13;;;41.80;99.90;;;;;;4840709;28;20281;-75
2021/07/02 11:27:57;;;;;;;18.35;3.90;;;40.60;99.90;;;;;;4860312;28;20190;-74
2021/07/02 11:30:27;;;;;;;34.53;4.78;;;39.30;1.00;;;;;;4859591;28;20181;-76
2021/07/02 11:32:52;;;;;;;43.47;38.88;;;37.50;99.90;;;;;;4857106;28;20594;-74
2021/07/02 11:35:20;;;;;;;7.18;3.72;;;36.00;99.90;;;;;;4856684;28;20229;-72
2021/07/02 11:38:15;;;;;;;12.05;4.68;;;34.50;99.90;;;;;;4858796;28;20189;-75
2021/07/02 11:40:39;;;;;;;13.13;2.53;;;32.40;23.90;;;;;;4857308;28;20244;-75
2021/07/02 11:43:03;;;;;;;7.57;1.08;;;31.90;11.90;;;;;;4859519;28;20239;-73
2021/07/02 11:45:40;;;;;;;51.78;6.32;;;30.50;99.90;;;;;;4856740;28;20214;-73
2021/07/02 11:48:02;;;;;;;11.23;1.42;;;;;;;;;;4861562;28;20234;-74
2021/07/02 11:50:39;;;;;;;47.42;5.82;;;28.60;99.90;;;;;;4857056;28;20251;-76
2021/07/02 11:53:01;;;;;;;11.38;1.48;;;;;;;;;;4857246;28;20263;-75
2021/07/02 11:55:27;;;;;;;23.08;3.00;;;27.30;99.90;;;;;;4856590;28;20722;-76
2021/07/02 11:57:50;;;;;;;7.60;1.10;;;;;;;;;;4858695;28;20206;-75
2021/07/02 12:00:13;;;;;;;8.77;1.23;;;25.70;1.00;;;;;;4871254;28;20188;-77
2021/07/02 12:02:37;;;;;;;5.87;0.83;;;;;;;;;;4865529;28;20224;-77
2021/07/02 12:05:04;;;;;;;10.93;1.50;;;25.90;1.00;;;;;;4859572;28;20192;-83
2021/07/02 12:07:28;;;;;;;11.13;1.53;;;;;;;;;;4838613;28;20203;-77
2021/07/02 12:09:51;;;;;;;13.10;1.80;;;;;;;;;;4856523;28;20276;-77
2021/07/02 12:12:21;;;;;;;6.90;1.03;;;25.10;99.90;;;;;;4856355;28;20250;-77
2021/07/02 12:14:47;;;;;;;11.27;1.70;;;25.10;99.90;;;;;;4853978;28;20187;-77
2021/07/02 12:17:11;;;;;;;10.57;1.50;;;;;;;;;;4876528;28;20189;-77
2021/07/02 12:19:36;;;;;;;12.23;1.67;;;25.30;99.90;;;;;;4863197;28;20704;-77
2021/07/02 12:22:04;;;;;;;7.40;1.07;;;25.50;99.90;;;;;;4880541;28;20247;-76
2021/07/02 12:24:30;;;;;;;12.40;1.67;;;26.20;99.90;;;;;;4860962;28;20205;-78
2021/07/02 12:26:56;;;;;;;8.00;1.23;;;27.00;99.90;;;;;;4840030;28;20248;-78
2021/07/02 12:29:22;;;;;;;24.67;3.27;;;27.80;99.90;;;;;;4839576;28;20195;-77
2021/07/02 12:31:47;;;;;;;7.43;1.10;;;28.60;99.90;;;;;;4858659;28;20189;-79
2021/07/02 12:34:14;;;;;;;13.17;1.73;;;30.70;99.90;;;;;;4856687;28;20245;-81
2021/07/02 12:36:58;;;;;;;6.57;0.93;;;33.60;99.90;;;;;;4863926;28;20190;-78
2021/07/02 12:39:23;;;;;;;18.75;2.38;;;36.50;1.00;;;;;;4886435;28;20617;-81
2021/07/02 12:41:47;;;;;;;7.88;1.10;;;38.90;99.90;;;;;;4837981;28;20244;-77
2021/07/02 12:44:13;;;;;;;12.63;1.75;;;40.80;1.00;;;;;;4851379;28;20197;-75
2021/07/02 12:46:38;;;;;;;5.65;0.80;;;42.80;99.90;;;;;;4859297;28;20229;-76
2021/07/02 12:49:31;;;;;;;6.28;0.88;;;43.50;1.00;;;;;;4854809;28;20200;-78
2021/07/02 12:54:50;;;;;;;11.50;1.63;;;44.60;99.90;;;;;;4855564;28;20226;-77
2021/07/02 12:57:21;;;;;;;21.77;2.95;;;43.10;99.90;;;;;;4856310;28;20713;-79
2021/07/02 12:59:48;;;;;;;11.32;1.63;;;41.10;1.00;;;;;;4857031;28;20193;-77
2021/07/02 13:02:12;;;;;;;8.63;1.27;;;39.60;99.90;;;;;;4857530;28;20316;-77
2021/07/02 13:04:43;;;;;;;7.75;1.10;;;38.70;99.90;;;;;;4855440;28;20652;-76
2021/07/02 13:07:06;;;;;;;26.23;3.35;;;;;;;;;;4855193;28;20587;-78
2021/07/02 13:09:28;;;;;;;19.20;2.42;;;37.10;1.00;;;;;;4858551;28;20197;-76
2021/07/02 13:11:51;;;;;;;28.33;3.65;;;36.70;99.90;;;;;;4840322;28;20778;-82
2021/07/02 13:14:28;;;;;;;15.90;2.10;;;36.40;99.90;;;;;;4855619;28;20217;-76